createdAt,value
2022-11-01T00:04:59.104Z,8.0
2022-11-01T00:12:31.378Z,8.0
2022-11-01T00:20:03.655Z,8.0
2022-11-01T00:27:35.930Z,8.0
2022-11-01T00:35:08.217Z,8.0
2022-11-01T00:42:40.487Z,9.2
2022-11-01T00:50:12.755Z,9.2
2022-11-01T00:57:45.036Z,9.2
2022-11-01T01:05:17.315Z,9.2
2022-11-01T01:12:49.582Z,9.2
2022-11-01T01:20:21.862Z,9.2
2022-11-01T01:27:54.124Z,9.2
2022-11-01T01:35:26.401Z,9.2
2022-11-01T01:42:58.677Z,10.2
2022-11-01T01:50:30.941Z,10.2
2022-11-01T01:58:03.218Z,10.2
2022-11-01T02:05:35.506Z,10.2
2022-11-01T02:13:07.770Z,10.2
2022-11-01T02:20:40.047Z,10.2
2022-11-01T02:28:12.319Z,10.2
2022-11-01T02:35:44.616Z,10.2
2022-11-01T02:43:16.886Z,9.6
2022-11-01T02:50:49.160Z,9.6
2022-11-01T02:58:21.441Z,9.6
2022-11-01T03:05:53.715Z,9.6
2022-11-01T03:13:25.999Z,9.6
2022-11-01T03:20:58.285Z,9.6
2022-11-01T03:28:30.551Z,9.6
2022-11-01T03:36:02.836Z,9.6
2022-11-01T03:43:35.103Z,8.9
2022-11-01T03:51:07.383Z,8.9
2022-11-01T03:58:39.659Z,8.9
2022-11-01T04:06:11.934Z,8.9
2022-11-01T04:13:44.210Z,8.9
2022-11-01T04:21:16.485Z,8.9
2022-11-01T04:28:48.760Z,8.9
2022-11-01T04:36:21.019Z,8.9
2022-11-01T04:43:53.308Z,8.3
2022-11-01T04:51:25.636Z,8.3
2022-11-01T04:58:57.982Z,8.3
2022-11-01T05:06:30.250Z,8.3
2022-11-01T05:14:02.534Z,8.3
2022-11-01T05:21:34.815Z,8.3
2022-11-01T05:25:44.302Z,8.3
2022-11-01T05:26:31.602Z,8.3
2022-11-01T05:27:18.917Z,8.3
2022-11-01T05:28:06.197Z,8.3
2022-11-01T05:28:53.520Z,8.3
2022-11-01T05:29:40.809Z,8.3
2022-11-01T05:30:28.100Z,8.3
2022-11-01T05:31:15.404Z,8.3
2022-11-01T05:32:02.700Z,8.3
2022-11-01T05:32:49.959Z,8.3
2022-11-01T05:33:37.322Z,8.3
2022-11-01T05:34:24.637Z,8.3
2022-11-01T05:35:11.899Z,8.3
2022-11-01T05:35:59.222Z,8.3
2022-11-01T05:36:46.488Z,8.3
2022-11-01T05:37:33.758Z,8.3
2022-11-01T05:38:21.084Z,8.3
2022-11-01T05:39:08.360Z,8.3
2022-11-01T05:39:55.632Z,8.3
2022-11-01T05:40:42.942Z,8.3
2022-11-01T05:41:30.206Z,8.3
2022-11-01T05:42:17.479Z,8.3
2022-11-01T05:43:05.175Z,8.3
2022-11-01T05:43:52.831Z,8.3
2022-11-01T05:44:40.291Z,8.3
2022-11-01T05:45:27.577Z,8.3
2022-11-01T05:46:14.874Z,8.3
2022-11-01T05:47:02.139Z,8.3
2022-11-01T05:47:49.413Z,8.3
2022-11-01T05:48:36.702Z,8.3
2022-11-01T05:49:23.976Z,8.3
2022-11-01T05:50:11.238Z,8.3
2022-11-01T05:50:58.535Z,8.3
2022-11-01T05:51:45.800Z,8.3
2022-11-01T05:52:33.058Z,8.3
2022-11-01T05:53:20.475Z,8.3
2022-11-01T05:54:07.748Z,8.3
2022-11-01T05:54:55.011Z,8.3
2022-11-01T05:55:42.310Z,8.3
2022-11-01T05:56:29.608Z,8.3
2022-11-01T05:57:16.881Z,8.3
2022-11-01T05:58:04.217Z,8.3
2022-11-01T05:58:51.532Z,8.3
2022-11-01T05:59:38.810Z,8.3
2022-11-01T06:00:26.101Z,8.3
2022-11-01T06:01:13.421Z,8.3
2022-11-01T06:02:00.836Z,8.3
2022-11-01T06:02:48.203Z,8.3
2022-11-01T06:03:35.527Z,8.3
2022-11-01T06:04:22.811Z,8.3
2022-11-01T06:05:10.107Z,8.3
2022-11-01T06:05:57.571Z,8.3
2022-11-01T06:06:44.843Z,8.3
2022-11-01T06:07:32.165Z,8.3
2022-11-01T06:08:19.427Z,8.3
2022-11-01T06:09:06.704Z,8.3
2022-11-01T06:09:54.014Z,8.3
2022-11-01T06:10:41.284Z,8.3
2022-11-01T06:11:28.565Z,8.3
2022-11-01T06:12:15.874Z,8.3
2022-11-01T06:13:03.419Z,8.3
2022-11-01T06:13:50.981Z,8.3
2022-11-01T06:14:38.271Z,8.3
2022-11-01T06:15:25.567Z,8.3
2022-11-01T06:16:12.841Z,8.3
2022-11-01T06:17:00.165Z,8.3
2022-11-01T06:17:47.420Z,8.3
2022-11-01T06:18:34.696Z,8.3
2022-11-01T06:19:22.011Z,8.3
2022-11-01T06:20:09.283Z,8.3
2022-11-01T06:20:56.721Z,8.3
2022-11-01T06:21:44.000Z,8.3
2022-11-01T06:22:31.295Z,8.3
2022-11-01T06:23:18.556Z,8.3
2022-11-01T06:24:05.889Z,8.3
2022-11-01T06:24:53.172Z,8.3
2022-11-01T06:25:40.438Z,8.3
2022-11-01T06:26:27.759Z,8.3
2022-11-01T06:27:15.044Z,8.3
2022-11-01T06:28:02.614Z,8.3
2022-11-01T06:28:50.192Z,8.3
2022-11-01T06:29:37.603Z,8.3
2022-11-01T06:30:24.872Z,14.5
2022-11-01T06:31:12.167Z,14.5
2022-11-01T06:31:59.447Z,14.5
2022-11-01T06:32:46.741Z,14.5
2022-11-01T06:33:34.022Z,14.5
2022-11-01T06:34:21.311Z,14.5
2022-11-01T06:35:08.589Z,14.5
2022-11-01T06:35:55.881Z,14.5
2022-11-01T06:36:43.160Z,14.5
2022-11-01T06:37:30.513Z,14.5
2022-11-01T06:38:17.780Z,14.5
2022-11-01T06:39:05.075Z,14.5
2022-11-01T06:39:52.354Z,14.5
2022-11-01T06:40:39.626Z,14.5
2022-11-01T06:41:26.949Z,14.5
2022-11-01T06:42:14.256Z,14.5
2022-11-01T06:43:02.097Z,14.5
2022-11-01T06:43:52.215Z,14.5
2022-11-01T06:44:39.498Z,14.5
2022-11-01T06:45:26.893Z,14.5
2022-11-01T06:46:14.251Z,14.5
2022-11-01T06:47:01.805Z,14.5
2022-11-01T06:47:49.105Z,14.5
2022-11-01T06:48:36.371Z,14.5
2022-11-01T06:49:23.667Z,14.5
2022-11-01T06:50:10.988Z,14.5
2022-11-01T06:50:58.382Z,14.5
2022-11-01T06:51:45.669Z,14.5
2022-11-01T06:52:33.153Z,14.5
2022-11-01T06:53:20.485Z,14.5
2022-11-01T06:54:08.128Z,14.5
2022-11-01T06:54:57.960Z,14.5
2022-11-01T06:55:46.233Z,14.5
2022-11-01T06:56:33.508Z,14.5
2022-11-01T06:57:21.083Z,14.5
2022-11-01T06:58:08.384Z,14.5
2022-11-01T06:58:55.667Z,14.5
2022-11-01T06:59:43.078Z,14.5
2022-11-01T07:00:30.362Z,14.5
2022-11-01T07:01:17.714Z,14.5
2022-11-01T07:02:05.178Z,14.5
2022-11-01T07:02:52.653Z,14.5
2022-11-01T07:03:40.001Z,14.5
2022-11-01T07:04:27.430Z,14.5
2022-11-01T07:05:14.715Z,14.5
2022-11-01T07:06:01.997Z,14.5
2022-11-01T07:06:49.424Z,14.5
2022-11-01T07:07:36.702Z,14.5
2022-11-01T07:08:23.988Z,14.5
2022-11-01T07:09:11.403Z,14.5
2022-11-01T07:09:58.694Z,14.5
2022-11-01T07:10:45.961Z,14.5
2022-11-01T07:11:33.420Z,14.5
2022-11-01T07:12:20.699Z,14.5
2022-11-01T07:13:07.972Z,14.5
2022-11-01T07:13:55.404Z,14.5
2022-11-01T07:14:42.700Z,14.5
2022-11-01T07:15:29.979Z,14.5
2022-11-01T07:16:17.463Z,14.5
2022-11-01T07:17:04.738Z,14.5
2022-11-01T07:17:52.007Z,14.5
2022-11-01T07:18:39.434Z,14.5
2022-11-01T07:19:26.704Z,14.5
2022-11-01T07:20:14.000Z,14.5
2022-11-01T07:21:01.371Z,14.5
2022-11-01T07:21:48.633Z,14.5
2022-11-01T07:22:35.915Z,14.5
2022-11-01T07:23:23.312Z,14.5
2022-11-01T07:24:10.607Z,14.5
2022-11-01T07:24:57.888Z,14.5
2022-11-01T07:25:45.312Z,14.5
2022-11-01T07:26:32.599Z,14.5
2022-11-01T07:27:20.692Z,14.5
2022-11-01T07:28:08.205Z,14.5
2022-11-01T07:28:55.502Z,14.5
2022-11-01T07:29:42.770Z,14.5
2022-11-01T07:30:30.052Z,15.5
2022-11-01T07:31:17.472Z,15.5
2022-11-01T07:32:04.749Z,15.5
2022-11-01T07:32:52.029Z,15.5
2022-11-01T07:33:39.458Z,15.5
2022-11-01T07:34:26.735Z,15.5
2022-11-01T07:35:14.011Z,15.5
2022-11-01T07:36:01.440Z,15.5
2022-11-01T07:36:48.716Z,15.5
2022-11-01T07:37:35.988Z,15.5
2022-11-01T07:38:23.426Z,15.5
2022-11-01T07:39:10.711Z,15.5
2022-11-01T07:39:57.998Z,15.5
2022-11-01T07:40:45.382Z,15.5
2022-11-01T07:41:32.656Z,15.5
2022-11-01T07:42:19.943Z,15.5
2022-11-01T07:43:07.372Z,15.5
2022-11-01T07:43:54.653Z,15.5
2022-11-01T07:44:41.956Z,15.5
2022-11-01T07:45:29.377Z,15.5
2022-11-01T07:46:16.671Z,15.5
2022-11-01T07:47:03.960Z,15.5
2022-11-01T07:47:51.378Z,15.5
2022-11-01T07:48:38.681Z,15.5
2022-11-01T07:49:26.020Z,15.5
2022-11-01T07:50:13.366Z,15.5
2022-11-01T07:51:00.633Z,15.5
2022-11-01T07:51:47.908Z,15.5
2022-11-01T07:52:35.314Z,15.5
2022-11-01T07:53:22.584Z,15.5
2022-11-01T07:54:09.868Z,15.5
2022-11-01T07:54:57.283Z,15.5
2022-11-01T07:55:44.585Z,15.5
2022-11-01T07:56:31.865Z,15.5
2022-11-01T07:57:19.270Z,15.5
2022-11-01T07:58:06.695Z,15.5
2022-11-01T07:58:54.144Z,15.5
2022-11-01T07:59:41.517Z,15.5
2022-11-01T08:00:28.840Z,15.5
2022-11-01T08:01:16.221Z,15.5
2022-11-01T08:02:06.975Z,15.5
2022-11-01T08:02:55.483Z,15.5
2022-11-01T08:03:42.808Z,15.5
2022-11-01T08:04:30.093Z,15.5
2022-11-01T08:05:17.374Z,15.5
2022-11-01T08:06:04.844Z,15.5
2022-11-01T08:06:52.458Z,15.5
2022-11-01T08:07:39.843Z,15.5
2022-11-01T08:08:27.231Z,15.5
2022-11-01T08:09:14.527Z,15.5
2022-11-01T08:10:01.811Z,15.5
2022-11-01T08:10:49.196Z,15.5
2022-11-01T08:11:36.471Z,15.5
2022-11-01T08:12:23.719Z,15.5
2022-11-01T08:13:11.156Z,15.5
2022-11-01T08:14:02.843Z,15.5
2022-11-01T08:14:52.519Z,15.5
2022-11-01T08:15:39.924Z,15.5
2022-11-01T08:16:27.199Z,15.5
2022-11-01T08:17:14.476Z,15.5
2022-11-01T08:18:02.375Z,15.5
2022-11-01T08:18:49.975Z,15.5
2022-11-01T08:19:37.251Z,15.5
2022-11-01T08:20:24.581Z,15.5
2022-11-01T08:21:11.928Z,15.5
2022-11-01T08:21:59.200Z,15.5
2022-11-01T08:23:38.655Z,15.5
2022-11-01T08:24:26.066Z,15.5
2022-11-01T08:25:13.322Z,15.5
2022-11-01T08:26:00.568Z,15.5
2022-11-01T08:26:48.027Z,15.5
2022-11-01T08:27:35.549Z,15.5
2022-11-01T08:28:22.968Z,15.5
2022-11-01T08:29:10.398Z,15.5
2022-11-01T08:29:57.692Z,15.5
2022-11-01T08:30:44.962Z,17.3
2022-11-01T08:31:32.500Z,17.3
2022-11-01T08:32:19.823Z,17.3
2022-11-01T08:33:07.318Z,17.3
2022-11-01T08:33:54.719Z,17.3
2022-11-01T08:34:41.990Z,17.3
2022-11-01T08:35:29.268Z,17.3
2022-11-01T08:36:16.679Z,17.3
2022-11-01T08:37:03.951Z,17.3
2022-11-01T08:37:51.223Z,17.3
2022-11-01T08:38:38.689Z,17.3
2022-11-01T08:39:26.016Z,17.3
2022-11-01T08:40:13.304Z,17.3
2022-11-01T08:41:00.720Z,17.3
2022-11-01T08:41:48.006Z,17.3
2022-11-01T08:42:35.284Z,17.3
2022-11-01T08:43:22.693Z,17.3
2022-11-01T08:44:09.982Z,17.3
2022-11-01T08:44:57.253Z,17.3
2022-11-01T08:45:44.651Z,17.3
2022-11-01T08:46:31.927Z,17.3
2022-11-01T08:47:19.205Z,17.3
2022-11-01T08:48:06.611Z,17.3
2022-11-01T08:48:53.879Z,17.3
2022-11-01T08:49:41.160Z,17.3
2022-11-01T08:50:28.555Z,17.3
2022-11-01T08:51:15.832Z,17.3
2022-11-01T08:52:03.124Z,17.3
2022-11-01T08:52:50.530Z,17.3
2022-11-01T08:53:37.803Z,17.3
2022-11-01T08:54:25.081Z,17.3
2022-11-01T08:55:12.482Z,17.3
2022-11-01T08:55:59.756Z,17.3
2022-11-01T08:56:47.033Z,17.3
2022-11-01T08:57:34.427Z,17.3
2022-11-01T08:58:21.721Z,17.3
2022-11-01T08:59:08.994Z,17.3
2022-11-01T08:59:56.422Z,17.3
2022-11-01T09:00:43.719Z,17.3
2022-11-01T09:01:31.132Z,17.3
2022-11-01T09:02:18.637Z,17.3
2022-11-01T09:03:06.226Z,17.3
2022-11-01T09:03:53.526Z,17.3
2022-11-01T09:04:40.839Z,17.3
2022-11-01T09:05:28.123Z,17.3
2022-11-01T09:06:15.395Z,17.3
2022-11-01T09:07:02.708Z,17.3
2022-11-01T09:07:50.052Z,17.3
2022-11-01T09:08:37.385Z,17.3
2022-11-01T09:09:24.695Z,17.3
2022-11-01T09:10:11.995Z,17.3
2022-11-01T09:10:59.285Z,17.3
2022-11-01T09:11:46.590Z,17.3
2022-11-01T09:12:33.970Z,17.3
2022-11-01T09:13:21.254Z,17.3
2022-11-01T09:14:08.567Z,17.3
2022-11-01T09:14:55.847Z,17.3
2022-11-01T09:15:43.126Z,17.3
2022-11-01T09:16:30.515Z,17.3
2022-11-01T09:17:17.801Z,17.3
2022-11-01T09:18:05.096Z,17.3
2022-11-01T09:18:52.388Z,17.3
2022-11-01T09:19:39.676Z,17.3
2022-11-01T09:20:26.961Z,17.3
2022-11-01T09:21:14.235Z,17.3
2022-11-01T09:22:01.537Z,17.3
2022-11-01T09:22:48.832Z,17.3
2022-11-01T09:23:36.097Z,17.3
2022-11-01T09:24:23.362Z,17.3
2022-11-01T09:25:10.631Z,17.3
2022-11-01T09:25:57.932Z,17.3
2022-11-01T09:26:45.207Z,17.3
2022-11-01T09:27:32.507Z,17.3
2022-11-01T09:28:19.779Z,17.3
2022-11-01T09:29:07.061Z,17.3
2022-11-01T09:29:54.346Z,17.3
2022-11-01T09:30:49.928Z,18.9
2022-11-01T09:31:38.863Z,18.9
2022-11-01T09:32:26.320Z,18.9
2022-11-01T09:33:13.601Z,18.9
2022-11-01T09:34:00.883Z,18.9
2022-11-01T09:34:48.300Z,18.9
2022-11-01T09:35:35.576Z,18.9
2022-11-01T09:36:22.856Z,18.9
2022-11-01T09:37:10.295Z,18.9
2022-11-01T09:37:57.581Z,18.9
2022-11-01T09:38:44.860Z,18.9
2022-11-01T09:39:32.283Z,18.9
2022-11-01T09:40:19.559Z,18.9
2022-11-01T09:41:06.848Z,18.9
2022-11-01T09:41:54.262Z,18.9
2022-11-01T09:42:41.535Z,18.9
2022-11-01T09:43:28.957Z,18.9
2022-11-01T09:44:16.260Z,18.9
2022-11-01T09:45:03.540Z,18.9
2022-11-01T09:45:50.830Z,18.9
2022-11-01T09:46:38.249Z,18.9
2022-11-01T09:47:25.510Z,18.9
2022-11-01T09:48:12.786Z,18.9
2022-11-01T09:49:00.211Z,18.9
2022-11-01T09:49:47.491Z,18.9
2022-11-01T09:50:34.778Z,18.9
2022-11-01T09:51:22.171Z,18.9
2022-11-01T09:52:09.438Z,18.9
2022-11-01T09:52:56.719Z,18.9
2022-11-01T09:53:44.116Z,18.9
2022-11-01T09:54:31.389Z,18.9
2022-11-01T09:55:18.720Z,18.9
2022-11-01T09:56:06.073Z,18.9
2022-11-01T09:56:53.357Z,18.9
2022-11-01T09:57:40.678Z,18.9
2022-11-01T09:58:28.052Z,18.9
2022-11-01T09:59:15.333Z,18.9
2022-11-01T10:00:02.631Z,18.9
2022-11-01T10:00:50.842Z,18.9
2022-11-01T10:01:38.333Z,18.9
2022-11-01T10:02:25.726Z,18.9
2022-11-01T10:03:13.054Z,18.9
2022-11-01T10:04:00.475Z,18.9
2022-11-01T10:04:47.760Z,18.9
2022-11-01T10:05:35.047Z,18.9
2022-11-01T10:06:22.474Z,18.9
2022-11-01T10:07:09.742Z,18.9
2022-11-01T10:07:57.018Z,18.9
2022-11-01T10:08:44.453Z,18.9
2022-11-01T10:09:31.730Z,18.9
2022-11-01T10:10:19.011Z,18.9
2022-11-01T10:11:06.522Z,18.9
2022-11-01T10:11:53.823Z,18.9
2022-11-01T10:12:41.108Z,18.9
2022-11-01T10:13:28.548Z,18.9
2022-11-01T10:14:15.828Z,18.9
2022-11-01T10:15:03.107Z,18.9
2022-11-01T10:15:50.524Z,18.9
2022-11-01T10:16:37.831Z,18.9
2022-11-01T10:17:25.102Z,18.9
2022-11-01T10:18:12.540Z,18.9
2022-11-01T10:18:59.813Z,18.9
2022-11-01T10:19:47.082Z,18.9
2022-11-01T10:20:34.516Z,18.9
2022-11-01T10:21:23.524Z,18.9
2022-11-01T10:22:13.199Z,18.9
2022-11-01T10:23:01.006Z,18.9
2022-11-01T10:23:48.608Z,18.9
2022-11-01T10:24:35.875Z,18.9
2022-11-01T10:25:23.169Z,18.9
2022-11-01T10:26:10.482Z,18.9
2022-11-01T10:26:57.785Z,18.9
2022-11-01T10:27:45.074Z,18.9
2022-11-01T10:28:32.508Z,18.9
2022-11-01T10:29:19.775Z,18.9
2022-11-01T10:30:07.064Z,18.9
2022-11-01T10:30:54.481Z,15.7
2022-11-01T10:31:42.393Z,15.7
2022-11-01T10:32:29.969Z,15.7
2022-11-01T10:33:17.242Z,15.7
2022-11-01T10:34:04.523Z,15.7
2022-11-01T10:34:51.812Z,15.7
2022-11-01T10:35:39.231Z,15.7
2022-11-01T10:36:26.574Z,15.7
2022-11-01T10:37:13.907Z,15.7
2022-11-01T10:38:18.836Z,15.7
2022-11-01T10:39:44.348Z,15.7
2022-11-01T10:39:57.968Z,15.7
2022-11-01T10:40:48.545Z,15.7
2022-11-01T10:41:35.910Z,15.7
2022-11-01T10:42:23.223Z,15.7
2022-11-01T10:43:10.510Z,15.7
2022-11-01T10:43:57.920Z,15.7
2022-11-01T10:44:45.197Z,15.7
2022-11-01T10:45:32.463Z,15.7
2022-11-01T10:46:19.892Z,15.7
2022-11-01T10:47:07.195Z,15.7
2022-11-01T10:47:54.987Z,15.7
2022-11-01T10:48:42.274Z,15.7
2022-11-01T10:49:40.526Z,15.7
2022-11-01T10:50:27.539Z,15.7
2022-11-01T10:51:14.971Z,15.7
2022-11-01T10:52:02.363Z,15.7
2022-11-01T10:52:49.651Z,15.7
2022-11-01T10:53:36.929Z,15.7
2022-11-01T10:54:24.193Z,15.7
2022-11-01T10:55:11.614Z,15.7
2022-11-01T10:55:59.007Z,15.7
2022-11-01T10:56:46.541Z,15.7
2022-11-01T10:57:33.832Z,15.7
2022-11-01T10:58:21.117Z,15.7
2022-11-01T10:59:08.391Z,15.7
2022-11-01T10:59:55.668Z,15.7
2022-11-01T11:00:43.473Z,15.7
2022-11-01T11:01:31.065Z,15.7
2022-11-01T11:02:18.730Z,15.7
2022-11-01T11:03:06.395Z,15.7
2022-11-01T11:03:53.689Z,15.7
2022-11-01T11:04:41.130Z,15.7
2022-11-01T11:05:28.501Z,15.7
2022-11-01T11:06:15.814Z,15.7
2022-11-01T11:07:03.105Z,15.7
2022-11-01T11:07:50.422Z,15.7
2022-11-01T11:08:37.702Z,15.7
2022-11-01T11:09:25.164Z,15.7
2022-11-01T11:10:12.478Z,15.7
2022-11-01T11:10:59.791Z,15.7
2022-11-01T11:11:47.183Z,15.7
2022-11-01T11:12:34.799Z,15.7
2022-11-01T11:20:07.182Z,15.7
2022-11-01T11:27:39.474Z,15.7
2022-11-01T11:35:11.747Z,15.7
2022-11-01T11:42:44.022Z,12.1
2022-11-01T11:50:16.346Z,12.1
2022-11-01T11:56:45.879Z,12.1
2022-11-01T11:57:33.188Z,12.1
2022-11-01T11:58:20.472Z,12.1
2022-11-01T11:59:08.817Z,12.1
2022-11-01T11:59:56.306Z,12.1
2022-11-01T12:00:43.743Z,12.1
2022-11-01T12:01:31.097Z,12.1
2022-11-01T12:02:18.547Z,12.1
2022-11-01T12:03:06.269Z,12.1
2022-11-01T12:03:54.017Z,12.1
2022-11-01T12:04:41.291Z,12.1
2022-11-01T12:05:28.570Z,12.1
2022-11-01T12:06:15.985Z,12.1
2022-11-01T12:07:03.255Z,12.1
2022-11-01T12:07:50.527Z,12.1
2022-11-01T12:08:37.937Z,12.1
2022-11-01T12:09:25.220Z,12.1
2022-11-01T12:10:12.535Z,12.1
2022-11-01T12:10:59.916Z,12.1
2022-11-01T12:11:47.206Z,12.1
2022-11-01T12:12:34.475Z,12.1
2022-11-01T12:13:21.896Z,12.1
2022-11-01T12:14:09.170Z,12.1
2022-11-01T12:14:56.441Z,12.1
2022-11-01T12:15:43.876Z,12.1
2022-11-01T12:16:31.172Z,12.1
2022-11-01T12:17:18.487Z,12.1
2022-11-01T12:18:05.996Z,12.1
2022-11-01T12:18:54.291Z,12.1
2022-11-01T12:19:41.593Z,12.1
2022-11-01T12:20:28.870Z,12.1
2022-11-01T12:21:16.315Z,12.1
2022-11-01T12:22:03.591Z,12.1
2022-11-01T12:22:50.860Z,12.1
2022-11-01T12:23:38.282Z,12.1
2022-11-01T12:24:25.555Z,12.1
2022-11-01T12:25:12.830Z,12.1
2022-11-01T12:26:00.256Z,12.1
2022-11-01T12:26:47.991Z,12.1
2022-11-01T12:27:35.367Z,12.1
2022-11-01T12:28:23.107Z,12.1
2022-11-01T12:29:10.787Z,12.1
2022-11-01T12:29:58.120Z,12.1
2022-11-01T12:30:45.415Z,10.8
2022-11-01T12:31:32.687Z,10.8
2022-11-01T12:32:20.111Z,10.8
2022-11-01T12:33:07.459Z,10.8
2022-11-01T12:33:54.791Z,10.8
2022-11-01T12:34:42.751Z,10.8
2022-11-01T12:35:30.271Z,10.8
2022-11-01T12:36:17.675Z,10.8
2022-11-01T12:37:04.946Z,10.8
2022-11-01T12:37:52.227Z,10.8
2022-11-01T12:38:39.626Z,10.8
2022-11-01T12:39:26.908Z,10.8
2022-11-01T12:40:14.236Z,10.8
2022-11-01T12:41:01.583Z,10.8
2022-11-01T12:41:48.874Z,10.8
2022-11-01T12:42:36.139Z,10.8
2022-11-01T12:43:23.562Z,10.8
2022-11-01T12:44:10.852Z,10.8
2022-11-01T12:44:58.143Z,10.8
2022-11-01T12:45:45.677Z,10.8
2022-11-01T12:46:32.947Z,10.8
2022-11-01T12:47:20.211Z,10.8
2022-11-01T12:48:07.638Z,10.8
2022-11-01T12:48:54.916Z,10.8
2022-11-01T12:49:42.201Z,10.8
2022-11-01T12:50:29.621Z,10.8
2022-11-01T12:51:16.884Z,10.8
2022-11-01T12:52:04.205Z,10.8
2022-11-01T12:52:51.570Z,10.8
2022-11-01T12:53:38.847Z,10.8
2022-11-01T12:54:26.142Z,10.8
2022-11-01T12:55:16.569Z,10.8
2022-11-01T12:56:07.017Z,10.8
2022-11-01T12:56:54.394Z,10.8
2022-11-01T12:57:41.664Z,10.8
2022-11-01T12:58:33.509Z,10.8
2022-11-01T12:59:22.619Z,10.8
2022-11-01T13:00:10.012Z,10.8
2022-11-01T13:00:57.309Z,10.8
2022-11-01T13:01:44.715Z,10.8
2022-11-01T13:02:32.081Z,10.8
2022-11-01T13:03:19.346Z,10.8
2022-11-01T13:04:06.623Z,10.8
2022-11-01T13:04:54.054Z,10.8
2022-11-01T13:05:41.323Z,10.8
2022-11-01T13:06:28.596Z,10.8
2022-11-01T13:07:16.014Z,10.8
2022-11-01T13:08:03.401Z,10.8
2022-11-01T13:08:50.689Z,10.8
2022-11-01T13:09:38.102Z,10.8
2022-11-01T13:10:25.391Z,10.8
2022-11-01T13:11:12.689Z,10.8
2022-11-01T13:12:00.105Z,10.8
2022-11-01T13:12:47.402Z,10.8
2022-11-01T13:13:34.666Z,10.8
2022-11-01T13:14:22.117Z,10.8
2022-11-01T13:15:09.397Z,10.8
2022-11-01T13:15:56.684Z,10.8
2022-11-01T13:16:44.091Z,10.8
2022-11-01T13:17:31.371Z,10.8
2022-11-01T13:18:18.639Z,10.8
2022-11-01T13:19:06.044Z,10.8
2022-11-01T13:19:53.326Z,10.8
2022-11-01T13:20:40.620Z,10.8
2022-11-01T13:21:28.016Z,10.8
2022-11-01T13:22:15.294Z,10.8
2022-11-01T13:23:02.806Z,10.8
2022-11-01T13:23:50.318Z,10.8
2022-11-01T13:24:37.703Z,10.8
2022-11-01T13:25:24.994Z,10.8
2022-11-01T13:26:12.271Z,10.8
2022-11-01T13:26:59.550Z,10.8
2022-11-01T13:27:46.828Z,10.8
2022-11-01T13:28:34.115Z,10.8
2022-11-01T13:29:21.408Z,10.8
2022-11-01T13:30:08.694Z,10.8
2022-11-01T13:30:56.069Z,10.6
2022-11-01T13:31:43.343Z,10.6
2022-11-01T13:32:30.623Z,10.6
2022-11-01T13:33:17.904Z,10.6
2022-11-01T13:34:05.189Z,10.6
2022-11-01T13:34:52.495Z,10.6
2022-11-01T13:35:39.788Z,10.6
2022-11-01T13:36:30.224Z,10.6
2022-11-01T13:37:18.514Z,10.6
2022-11-01T13:38:05.830Z,10.6
2022-11-01T13:38:53.112Z,10.6
2022-11-01T13:39:40.391Z,10.6
2022-11-01T13:40:27.824Z,10.6
2022-11-01T13:41:15.109Z,10.6
2022-11-01T13:42:02.915Z,10.6
2022-11-01T13:42:50.201Z,10.6
2022-11-01T13:43:37.539Z,10.6
2022-11-01T13:44:24.816Z,10.6
2022-11-01T13:45:12.176Z,10.6
2022-11-01T13:45:59.460Z,10.6
2022-11-01T13:46:46.747Z,10.6
2022-11-01T13:47:34.084Z,10.6
2022-11-01T13:48:21.373Z,10.6
2022-11-01T13:49:08.649Z,10.6
2022-11-01T13:49:58.591Z,10.6
2022-11-01T13:50:47.902Z,10.6
2022-11-01T13:51:35.177Z,10.6
2022-11-01T13:52:22.474Z,10.6
2022-11-01T13:53:09.775Z,10.6
2022-11-01T13:53:57.050Z,10.6
2022-11-01T13:54:44.451Z,10.6
2022-11-01T13:55:31.843Z,10.6
2022-11-01T13:56:19.126Z,10.6
2022-11-01T13:57:06.582Z,10.6
2022-11-01T13:57:53.866Z,10.6
2022-11-01T13:58:41.148Z,10.6
2022-11-01T13:59:28.704Z,10.6
2022-11-01T14:00:16.027Z,10.6
2022-11-01T14:01:03.326Z,10.6
2022-11-01T14:01:50.840Z,10.6
2022-11-01T14:02:38.306Z,10.6
2022-11-01T14:03:25.643Z,10.6
2022-11-01T14:04:13.082Z,10.6
2022-11-01T14:05:00.361Z,10.6
2022-11-01T14:05:47.626Z,10.6
2022-11-01T14:06:35.086Z,10.6
2022-11-01T14:07:22.398Z,10.6
2022-11-01T14:08:09.681Z,10.6
2022-11-01T14:08:57.137Z,10.6
2022-11-01T14:09:44.408Z,10.6
2022-11-01T14:10:31.676Z,10.6
2022-11-01T14:11:19.126Z,10.6
2022-11-01T14:12:06.406Z,10.6
2022-11-01T14:12:53.681Z,10.6
2022-11-01T14:13:41.111Z,10.6
2022-11-01T14:14:28.395Z,10.6
2022-11-01T14:15:15.702Z,10.6
2022-11-01T14:16:03.088Z,10.6
2022-11-01T14:16:50.377Z,10.6
2022-11-01T14:17:37.651Z,10.6
2022-11-01T14:18:25.074Z,10.6
2022-11-01T14:19:16.008Z,10.6
2022-11-01T14:20:06.659Z,10.6
2022-11-01T14:20:54.108Z,10.6
2022-11-01T14:21:41.396Z,10.6
2022-11-01T14:22:28.688Z,10.6
2022-11-01T14:23:16.107Z,10.6
2022-11-01T14:24:03.389Z,10.6
2022-11-01T14:24:50.662Z,10.6
2022-11-01T14:25:38.090Z,10.6
2022-11-01T14:26:25.367Z,10.6
2022-11-01T14:27:12.657Z,10.6
2022-11-01T14:28:00.044Z,10.6
2022-11-01T14:28:47.341Z,10.6
2022-11-01T14:29:34.627Z,10.6
2022-11-01T14:30:22.048Z,10.6
2022-11-01T14:31:09.327Z,12.3
2022-11-01T14:31:56.610Z,12.3
2022-11-01T14:32:43.995Z,12.3
2022-11-01T14:33:31.260Z,12.3
2022-11-01T14:34:18.540Z,12.3
2022-11-01T14:35:05.931Z,12.3
2022-11-01T14:35:53.203Z,12.3
2022-11-01T14:36:40.475Z,12.3
2022-11-01T14:37:27.870Z,12.3
2022-11-01T14:38:15.126Z,12.3
2022-11-01T14:39:02.404Z,12.3
2022-11-01T14:39:49.794Z,12.3
2022-11-01T14:40:37.068Z,12.3
2022-11-01T14:41:24.349Z,12.3
2022-11-01T14:42:11.737Z,12.3
2022-11-01T14:42:59.010Z,12.3
2022-11-01T14:43:46.280Z,12.3
2022-11-01T14:44:33.696Z,12.3
2022-11-01T14:45:20.964Z,12.3
2022-11-01T14:46:08.254Z,12.3
2022-11-01T14:46:55.659Z,12.3
2022-11-01T14:47:42.933Z,12.3
2022-11-01T14:48:30.201Z,12.3
2022-11-01T14:49:17.635Z,12.3
2022-11-01T14:50:04.908Z,12.3
2022-11-01T14:50:52.200Z,12.3
2022-11-01T14:51:39.599Z,12.3
2022-11-01T14:52:26.890Z,12.3
2022-11-01T14:53:14.188Z,12.3
2022-11-01T14:54:01.608Z,12.3
2022-11-01T14:54:48.910Z,12.3
2022-11-01T14:55:36.203Z,12.3
2022-11-01T14:56:23.619Z,12.3
2022-11-01T14:57:10.903Z,12.3
2022-11-01T14:57:58.206Z,12.3
2022-11-01T14:58:45.612Z,12.3
2022-11-01T14:59:32.907Z,12.3
2022-11-01T15:00:20.199Z,12.3
2022-11-01T15:01:07.743Z,12.3
2022-11-01T15:02:01.135Z,12.3
2022-11-01T15:02:49.987Z,12.3
2022-11-01T15:03:37.343Z,12.3
2022-11-01T15:04:24.590Z,12.3
2022-11-01T15:05:11.860Z,12.3
2022-11-01T15:05:59.263Z,12.3
2022-11-01T15:06:46.560Z,12.3
2022-11-01T15:07:33.848Z,12.3
2022-11-01T15:08:21.234Z,12.3
2022-11-01T15:09:08.514Z,12.3
2022-11-01T15:09:55.799Z,12.3
2022-11-01T15:10:43.180Z,12.3
2022-11-01T15:11:30.461Z,12.3
2022-11-01T15:12:17.742Z,12.3
2022-11-01T15:13:05.150Z,12.3
2022-11-01T15:13:52.454Z,12.3
2022-11-01T15:14:39.755Z,12.3
2022-11-01T15:15:27.412Z,12.3
2022-11-01T15:16:14.760Z,12.3
2022-11-01T15:17:02.043Z,12.3
2022-11-01T15:17:49.440Z,12.3
2022-11-01T15:18:36.715Z,12.3
2022-11-01T15:19:24.030Z,12.3
2022-11-01T15:20:11.435Z,12.3
2022-11-01T15:20:58.720Z,12.3
2022-11-01T15:21:47.650Z,12.3
2022-11-01T15:22:35.111Z,12.3
2022-11-01T15:23:22.419Z,12.3
2022-11-01T15:24:09.704Z,12.3
2022-11-01T15:24:56.966Z,12.3
2022-11-01T15:25:44.394Z,12.3
2022-11-01T15:26:31.680Z,12.3
2022-11-01T15:27:18.971Z,12.3
2022-11-01T15:28:06.376Z,12.3
2022-11-01T15:28:53.649Z,12.3
2022-11-01T15:29:40.919Z,12.3
2022-11-01T15:30:28.349Z,14.2
2022-11-01T15:31:15.628Z,14.2
2022-11-01T15:32:02.920Z,14.2
2022-11-01T15:32:50.330Z,14.2
2022-11-01T15:33:37.627Z,14.2
2022-11-01T15:34:24.935Z,14.2
2022-11-01T15:35:12.337Z,14.2
2022-11-01T15:35:59.625Z,14.2
2022-11-01T15:36:46.915Z,14.2
2022-11-01T15:37:34.311Z,14.2
2022-11-01T15:38:21.598Z,14.2
2022-11-01T15:39:08.873Z,14.2
2022-11-01T15:39:56.297Z,14.2
2022-11-01T15:40:43.644Z,14.2
2022-11-01T15:41:30.920Z,14.2
2022-11-01T15:42:18.343Z,14.2
2022-11-01T15:43:06.082Z,14.2
2022-11-01T15:43:53.666Z,14.2
2022-11-01T15:44:45.169Z,14.2
2022-11-01T15:45:33.658Z,14.2
2022-11-01T15:46:21.128Z,14.2
2022-11-01T15:47:08.436Z,14.2
2022-11-01T15:47:55.722Z,14.2
2022-11-01T15:48:43.147Z,14.2
2022-11-01T15:49:30.437Z,14.2
2022-11-01T15:50:17.714Z,14.2
2022-11-01T15:51:05.138Z,14.2
2022-11-01T15:51:52.423Z,14.2
2022-11-01T15:52:39.692Z,14.2
2022-11-01T15:53:27.147Z,14.2
2022-11-01T15:54:14.437Z,14.2
2022-11-01T15:55:01.775Z,14.2
2022-11-01T15:55:49.155Z,14.2
2022-11-01T15:56:36.533Z,14.2
2022-11-01T15:57:24.264Z,14.2
2022-11-01T16:04:56.538Z,14.2
2022-11-01T16:12:28.821Z,14.2
2022-11-01T16:20:01.108Z,14.2
2022-11-01T16:27:33.384Z,14.2
2022-11-01T16:35:05.659Z,14.2
2022-11-01T16:42:37.938Z,15.0
2022-11-01T16:50:10.213Z,15.0
2022-11-01T16:57:42.500Z,15.0
2022-11-01T17:05:14.773Z,15.0
2022-11-01T17:12:47.041Z,15.0
2022-11-01T17:20:19.320Z,15.0
2022-11-01T17:27:51.604Z,15.0